Time;durP1;ratioP1;P1;durP2;ratioP2;P2;SDS_P1;SDS_P2;PMS_P1;PMS_P2;Temp;Humidity;BMP_temperature;BMP_pressure;BME280_temperature;BME280_humidity;BME280_pressure;Samples;Min_cycle;Max_cycle;Signal;HPM_P1;HPM_P2
2022/12/23 00:00:05;;;;;;;221.47;41.83;;;;;;;6.68;100.00;149135.72;5030699;28;20036;-67
2022/12/23 00:02:31;;;;;;;233.33;42.53;;;;;;;6.65;100.00;149129.22;5029308;28;20041;-67
2022/12/23 00:04:56;;;;;;;252.07;41.87;;;;;;;6.60;100.00;149116.34;5029341;28;20021;-67
2022/12/23 00:07:22;;;;;;;245.90;42.07;;;;;;;6.63;100.00;149124.06;5028213;28;20412;-67
2022/12/23 00:09:47;;;;;;;320.03;44.77;;;;;;;6.67;100.00;149133.16;5021960;28;20032;-67
2022/12/23 00:15:05;;;;;;;251.03;44.10;;;;;;;6.76;100.00;149156.34;5027022;28;20041;-66
2022/12/23 00:17:34;;;;;;;262.53;42.80;;;;;;;6.78;100.00;149161.50;5034557;28;20071;-66
2022/12/23 00:20:01;;;;;;;359.33;44.57;;;;;;;6.76;100.00;149156.34;5006363;28;20030;-67
2022/12/23 00:25:11;;;;;;;286.20;41.47;;;;;;;6.73;100.00;149148.63;5030667;28;20087;-66
2022/12/23 00:27:37;;;;;;;397.20;45.10;;;;;;;6.72;100.00;149146.03;5034178;28;20116;-66
2022/12/23 00:30:05;;;;;;;353.20;44.97;;;;;;;6.73;100.00;149148.63;5030785;28;20053;-67
2022/12/23 00:32:30;;;;;;;294.23;43.10;;;;;;;6.75;100.00;149153.78;5031890;28;20071;-66
2022/12/23 00:34:56;;;;;;;301.73;43.80;;;;;;;6.74;100.00;149151.19;5022353;28;20033;-67
2022/12/23 00:37:21;;;;;;;317.33;43.37;;;;;;;6.74;100.00;149151.19;5018827;28;20017;-66
2022/12/23 00:45:15;;;;;;;433.93;46.50;;;;;;;6.75;100.00;149153.78;5028530;28;20175;-66
2022/12/23 00:50:27;;;;;;;356.50;43.43;;;;;;;6.69;100.00;149138.31;5030768;28;20112;-67
2022/12/23 00:52:52;;;;;;;355.20;44.00;;;;;;;6.63;100.00;149122.78;5032278;28;20108;-66
2022/12/23 00:55:18;;;;;;;504.40;49.70;;;;;;;6.64;100.00;149125.38;5021262;28;20036;-66
2022/12/23 00:57:44;;;;;;;400.90;46.93;;;;;;;6.67;100.00;149133.16;5022043;28;20485;-66
2022/12/23 01:00:10;;;;;;;624.07;50.83;;;;;;;6.65;100.00;149129.22;5024064;28;20033;-66
2022/12/23 01:05:37;;;;;;;993.67;60.87;;;;;;;6.66;100.00;149131.84;5024081;28;20056;-67
2022/12/23 01:08:10;;;;;;;997.73;60.77;;;;;;;6.63;100.00;149122.78;5027932;28;20071;-67
2022/12/23 01:10:38;;;;;;;928.40;58.43;;;;;;;6.62;100.00;149121.50;5028961;28;20481;-66
2022/12/23 01:13:04;;;;;;;460.00;48.60;;;;;;;6.68;100.00;149135.72;5031588;28;20025;-67
2022/12/23 01:15:30;;;;;;;627.17;52.17;;;;;;;6.72;100.00;149147.31;5031829;28;20025;-67
2022/12/23 01:17:55;;;;;;;635.40;52.90;;;;;;;6.74;100.00;149151.19;5032852;28;20033;-68
2022/12/23 01:20:21;;;;;;;752.13;56.53;;;;;;;6.73;100.00;149148.63;5030222;28;20036;-66
2022/12/23 01:22:46;;;;;;;829.37;55.50;;;;;;;6.72;100.00;149146.03;5033054;28;20492;-66
2022/12/23 01:25:12;;;;;;;436.37;46.80;;;;;;;6.75;100.00;149153.78;5027246;28;20021;-67
2022/12/23 01:27:38;;;;;;;498.40;50.07;;;;;;;6.75;100.00;149153.78;5022112;28;20033;-66
2022/12/23 01:30:04;;;;;;;548.27;49.57;;;;;;;6.78;100.00;149160.22;5039448;28;20021;-66
2022/12/23 01:32:29;;;;;;;866.57;57.20;;;;;;;6.79;100.00;149164.13;5034863;28;20078;-67
2022/12/23 01:34:55;;;;;;;533.53;48.63;;;;;;;6.78;100.00;149161.50;5042292;28;20033;-66
2022/12/23 01:37:20;;;;;;;902.20;55.93;;;;;;;6.81;100.00;149168.00;5027891;28;20049;-66
2022/12/23 01:39:45;;;;;;;1075.80;63.37;;;;;;;6.77;100.00;149158.94;5028215;28;20021;-66
2022/12/23 01:45:00;;;;;;;504.83;49.17;;;;;;;6.81;100.00;149169.28;5030075;28;20075;-67
2022/12/23 01:47:39;;;;;;;558.80;50.87;;;;;;;6.86;100.00;149182.19;5029666;28;20667;-66
2022/12/23 01:50:13;;;;;;;423.57;45.50;;;;;;;6.85;100.00;149179.59;5028778;28;20369;-67
2022/12/23 01:52:44;;;;;;;747.50;53.73;;;;;;;6.83;100.00;149174.44;5021180;28;20025;-66
2022/12/23 01:55:11;;;;;;;907.15;52.33;;;;;;;6.83;100.00;149173.16;5030913;28;20032;-66
2022/12/23 01:57:41;;;;;;;801.87;53.33;;;;;;;6.78;100.00;149161.50;5032548;28;20029;-66
2022/12/23 02:05:34;;;;;;;736.55;53.28;;;;;;;6.78;100.00;149160.22;5019004;28;20045;-63
2022/12/23 02:11:16;;;;;;;1006.13;60.17;;;;;;;6.84;100.00;149175.72;5032412;28;20095;-63
2022/12/23 02:17:19;;;;;;;841.57;50.53;;;;;;;6.83;100.00;149174.44;5031449;28;20045;-64
2022/12/23 02:20:11;;;;;;;385.87;45.43;;;;;;;6.86;100.00;149182.19;5027808;28;20504;-64
2022/12/23 02:22:45;;;;;;;623.25;51.40;;;;;;;6.87;100.00;149184.75;5021125;28;20504;-63
2022/12/23 02:25:14;;;;;;;700.20;52.90;;;;;;;6.84;100.00;149177.03;5028444;28;20037;-63
2022/12/23 02:27:48;;;;;;;909.97;60.03;;;;;;;6.83;100.00;149174.44;5028245;28;20021;-64
2022/12/23 02:30:35;;;;;;;612.43;53.10;;;;;;;6.88;100.00;149187.34;5030022;28;20480;-64
2022/12/23 02:33:12;;;;;;;933.37;58.57;;;;;;;6.90;100.00;149192.50;5032298;28;20048;-64
2022/12/23 02:35:40;;;;;;;313.67;43.07;;;;;;;6.90;100.00;149192.50;5030538;28;20029;-64
2022/12/23 02:38:12;;;;;;;502.03;48.27;;;;;;;6.94;100.00;149201.56;5031457;28;20061;-64
2022/12/23 02:40:52;;;;;;;408.57;45.00;;;;;;;6.91;100.00;149195.13;5031559;28;20098;-64
2022/12/23 02:43:23;;;;;;;347.53;43.07;;;;;;;6.93;100.00;149198.97;5031541;28;20277;-63
2022/12/23 02:46:03;;;;;;;377.15;43.80;;;;;;;6.93;100.00;149198.97;5030721;28;20025;-64
2022/12/23 02:49:07;;;;;;;257.13;39.90;;;;;;;6.93;100.00;149198.97;5031916;28;20025;-63
2022/12/23 02:51:37;;;;;;;227.57;38.67;;;;;;;6.88;100.00;149187.34;5007491;28;20042;-63
2022/12/23 02:54:07;;;;;;;227.67;39.67;;;;;;;6.86;100.00;149182.19;5027529;28;20025;-63
2022/12/23 02:56:36;;;;;;;245.73;39.27;;;;;;;6.83;100.00;149174.44;5031099;28;20030;-63
2022/12/23 02:59:12;;;;;;;217.50;40.30;;;;;;;6.84;100.00;149177.03;5030582;28;20025;-64
2022/12/23 03:01:38;;;;;;;293.33;43.50;;;;;;;6.84;100.00;149175.72;5031703;28;20052;-64
2022/12/23 03:04:04;;;;;;;269.17;41.77;;;;;;;6.77;100.00;149158.94;5022068;28;20041;-64
2022/12/23 03:06:37;;;;;;;271.23;44.67;;;;;;;6.78;100.00;149161.50;5011390;28;20033;-64
2022/12/23 03:09:03;;;;;;;218.83;41.50;;;;;;;6.75;100.00;149153.78;5011728;28;20018;-64
2022/12/23 03:11:53;;;;;;;238.73;42.73;;;;;;;6.80;100.00;149166.72;5011486;28;20045;-64
2022/12/23 03:14:37;;;;;;;277.17;44.93;;;;;;;6.75;100.00;149153.78;5011561;28;22008;-65
2022/12/23 03:17:19;;;;;;;335.33;45.47;;;;;;;6.78;100.00;149160.22;5011885;28;20429;-65
2022/12/23 03:19:44;;;;;;;325.57;44.30;;;;;;;6.76;100.00;149157.63;5010439;28;20032;-65
2022/12/23 03:22:15;;;;;;;391.53;46.47;;;;;;;6.75;100.00;149153.78;5012115;28;20448;-64
2022/12/23 03:25:04;;;;;;;301.38;43.42;;;;;;;6.71;100.00;149144.75;5011411;28;20034;-65
2022/12/23 03:27:37;;;;;;;294.93;44.80;;;;;;;6.68;100.00;149137.00;5011608;28;20389;-64
2022/12/23 03:30:06;;;;;;;335.60;46.97;;;;;;;6.68;100.00;149135.72;5010800;28;20117;-64
2022/12/23 03:32:37;;;;;;;317.63;45.93;;;;;;;6.71;100.00;149144.75;5011115;28;20030;-64
2022/12/23 03:35:06;;;;;;;420.17;45.20;;;;;;;6.55;100.00;149102.16;5009447;28;20416;-64
2022/12/23 03:37:35;;;;;;;335.27;46.00;;;;;;;6.64;100.00;149126.66;5010806;28;20481;-64
2022/12/23 03:40:09;;;;;;;283.17;41.97;;;;;;;6.59;100.00;149112.47;5010837;28;20037;-63
2022/12/23 03:42:38;;;;;;;283.63;44.50;;;;;;;6.63;100.00;149124.06;5010995;28;20112;-64
2022/12/23 03:45:10;;;;;;;309.00;46.00;;;;;;;6.62;100.00;149121.50;5013811;28;20021;-64
2022/12/23 03:48:07;;;;;;;426.50;49.33;;;;;;;6.64;100.00;149125.38;5011728;28;20033;-64
2022/12/23 03:50:35;;;;;;;294.10;45.43;;;;;;;6.67;100.00;149133.16;5011988;28;20118;-65
2022/12/23 03:53:09;;;;;;;339.20;45.20;;;;;;;6.69;100.00;149138.31;5014541;28;20033;-63
2022/12/23 03:55:41;;;;;;;369.90;45.97;;;;;;;6.66;100.00;149130.53;5006113;28;20147;-62
2022/12/23 03:58:18;;;;;;;449.05;49.47;;;;;;;6.69;100.00;149138.31;5015296;28;20042;-62
2022/12/23 04:00:54;;;;;;;476.00;50.47;;;;;;;6.69;100.00;149139.59;5013609;28;20038;-62
2022/12/23 04:03:37;;;;;;;854.43;59.53;;;;;;;6.64;100.00;149126.66;5014070;28;20049;-62
2022/12/23 04:06:07;;;;;;;454.13;48.57;;;;;;;6.66;100.00;149130.53;5012552;28;20029;-62
2022/12/23 04:08:36;;;;;;;907.60;60.23;;;;;;;6.66;100.00;149130.53;5014963;28;20357;-62
2022/12/23 04:11:02;;;;;;;393.43;44.70;;;;;;;6.58;100.00;149109.91;5014269;28;20030;-61
2022/12/23 04:13:32;;;;;;;548.10;51.27;;;;;;;6.58;100.00;149109.91;5014557;28;20038;-62
2022/12/23 04:15:59;;;;;;;349.87;46.03;;;;;;;6.56;100.00;149104.75;5012491;28;20766;-62
2022/12/23 04:18:24;;;;;;;368.03;47.17;;;;;;;6.58;100.00;149111.19;5014956;28;20038;-63
2022/12/23 04:20:49;;;;;;;376.67;46.20;;;;;;;6.63;100.00;149122.78;5012829;28;20030;-63
2022/12/23 04:23:15;;;;;;;350.03;45.60;;;;;;;6.60;100.00;149115.06;5014450;28;20026;-62
2022/12/23 04:25:40;;;;;;;408.97;47.03;;;;;;;6.60;100.00;149115.06;5013575;28;20026;-63
2022/12/23 04:28:06;;;;;;;467.80;47.33;;;;;;;6.59;100.00;149112.47;5014776;28;20584;-62
2022/12/23 04:30:31;;;;;;;369.50;45.20;;;;;;;6.58;100.00;149109.91;5012640;28;20097;-62
2022/12/23 04:32:56;;;;;;;471.10;47.37;;;;;;;6.54;100.00;149099.53;5013572;28;20170;-63
2022/12/23 04:35:22;;;;;;;282.53;44.93;;;;;;;6.59;100.00;149112.47;5013033;28;20056;-62
2022/12/23 04:37:48;;;;;;;380.43;45.83;;;;;;;6.60;100.00;149116.34;5014176;28;20060;-62
2022/12/23 04:40:13;;;;;;;361.90;45.33;;;;;;;6.57;100.00;149108.63;5013586;28;20030;-62
2022/12/23 04:42:38;;;;;;;310.73;44.20;;;;;;;6.63;100.00;149122.78;5014502;28;20057;-63
2022/12/23 04:45:04;;;;;;;305.23;42.33;;;;;;;6.62;100.00;149121.50;5013493;28;20018;-63
2022/12/23 04:47:30;;;;;;;314.07;45.27;;;;;;;6.67;100.00;149133.16;5014495;28;20033;-62
2022/12/23 04:49:55;;;;;;;267.30;45.27;;;;;;;6.73;100.00;149148.63;5012351;28;20022;-63
2022/12/23 04:52:20;;;;;;;298.83;46.67;;;;;;;6.77;100.00;149158.94;5014087;28;20037;-61
2022/12/23 04:54:46;;;;;;;438.97;48.50;;;;;;;6.85;100.00;149179.59;5012510;28;20029;-63
2022/12/23 04:57:12;;;;;;;444.20;49.77;;;;;;;6.84;100.00;149175.72;5014118;28;20496;-62
2022/12/23 04:59:37;;;;;;;308.63;44.30;;;;;;;6.90;100.00;149192.50;5012754;28;20030;-62
2022/12/23 05:02:03;;;;;;;380.53;47.07;;;;;;;6.92;100.00;149197.69;5013793;28;20030;-61
2022/12/23 05:04:28;;;;;;;292.83;41.53;;;;;;;6.84;100.00;149175.72;5012293;28;20029;-62
2022/12/23 05:06:54;;;;;;;306.53;43.10;;;;;;;6.97;100.00;149210.59;5012280;28;20430;-62
2022/12/23 05:09:19;;;;;;;414.73;45.23;;;;;;;6.94;100.00;149202.84;5013070;28;20030;-62
2022/12/23 05:11:45;;;;;;;310.50;41.97;;;;;;;7.01;100.00;149220.91;5013885;28;20030;-62
2022/12/23 05:14:10;;;;;;;295.80;41.10;;;;;;;7.02;100.00;149223.47;5012342;28;20183;-63
2022/12/23 05:16:36;;;;;;;286.13;39.97;;;;;;;7.03;100.00;149226.09;5013808;28;20394;-63
2022/12/23 05:19:01;;;;;;;332.17;40.70;;;;;;;6.94;100.00;149202.84;5009253;28;20533;-63
2022/12/23 05:21:27;;;;;;;381.93;42.33;;;;;;;6.91;100.00;149193.81;5002133;28;20760;-63
2022/12/23 05:23:52;;;;;;;302.10;39.33;;;;;;;6.84;100.00;149175.72;5000419;28;20069;-63
2022/12/23 05:26:18;;;;;;;263.83;38.80;;;;;;;6.92;100.00;149196.41;4987921;28;20121;-63
2022/12/23 05:28:44;;;;;;;234.80;36.83;;;;;;;6.87;100.00;149184.75;5006879;28;20019;-63
2022/12/23 05:31:11;;;;;;;302.00;39.07;;;;;;;6.86;100.00;149182.19;4999896;28;20037;-63
2022/12/23 05:33:37;;;;;;;291.67;39.33;;;;;;;6.95;100.00;149204.13;4996973;28;20113;-63
2022/12/23 05:36:03;;;;;;;286.87;39.07;;;;;;;6.91;100.00;149193.81;5005778;28;20440;-63
2022/12/23 05:38:29;;;;;;;313.77;39.40;;;;;;;6.93;100.00;149200.28;5007153;28;20437;-63
2022/12/23 05:40:54;;;;;;;280.33;37.27;;;;;;;6.89;100.00;149189.91;5004074;28;20022;-63
2022/12/23 05:43:20;;;;;;;290.83;37.43;;;;;;;6.88;100.00;149186.03;5000862;28;20058;-63
2022/12/23 05:45:45;;;;;;;285.97;36.93;;;;;;;6.91;100.00;149195.13;5003195;28;20076;-63
2022/12/23 05:48:11;;;;;;;301.70;38.43;;;;;;;6.81;100.00;149169.28;5013090;28;20036;-63
2022/12/23 05:50:37;;;;;;;319.50;38.53;;;;;;;6.85;100.00;149179.59;5011953;28;20025;-63
2022/12/23 05:53:03;;;;;;;266.80;37.97;;;;;;;6.82;100.00;149170.56;5012847;28;20104;-63
2022/12/23 05:55:28;;;;;;;232.23;35.40;;;;;;;6.86;100.00;149182.19;5011856;28;20026;-63
2022/12/23 05:57:54;;;;;;;254.60;34.93;;;;;;;6.87;100.00;149184.75;5013132;28;20393;-63
2022/12/23 06:00:20;;;;;;;254.87;36.03;;;;;;;6.85;100.00;149179.59;5011557;28;20053;-63
2022/12/23 06:02:45;;;;;;;254.47;34.50;;;;;;;6.85;100.00;149179.59;5009914;28;20032;-62
2022/12/23 06:05:11;;;;;;;283.70;35.17;;;;;;;6.79;100.00;149164.13;5010135;28;20469;-62
2022/12/23 06:08:01;;;;;;;249.30;33.73;;;;;;;6.80;100.00;149165.41;5010850;28;20476;-62
2022/12/23 06:10:30;;;;;;;238.73;34.67;;;;;;;6.86;100.00;149180.88;5012616;28;20069;-61
2022/12/23 06:12:55;;;;;;;252.27;34.13;;;;;;;6.84;100.00;149175.72;5012230;28;20401;-61
2022/12/23 06:15:20;;;;;;;225.20;32.70;;;;;;;6.84;100.00;149175.72;5011804;28;20029;-63
2022/12/23 06:17:47;;;;;;;241.60;34.03;;;;;;;6.86;100.00;149182.19;5012837;28;20116;-63
2022/12/23 06:20:12;;;;;;;229.70;33.87;;;;;;;6.87;100.00;149184.75;5009764;28;20847;-63
2022/12/23 06:22:38;;;;;;;196.77;31.17;;;;;;;6.79;100.00;149162.84;5012501;28;20053;-63
2022/12/23 06:25:04;;;;;;;206.07;32.77;;;;;;;6.82;100.00;149171.88;5012181;28;20037;-62
2022/12/23 06:27:30;;;;;;;223.03;32.10;;;;;;;6.77;100.00;149158.94;5011440;28;20385;-62
2022/12/23 06:29:56;;;;;;;200.77;31.63;;;;;;;6.79;100.00;149164.13;5011870;28;20108;-63
2022/12/23 06:32:30;;;;;;;192.57;30.70;;;;;;;6.80;100.00;149165.41;5012530;28;20101;-63
2022/12/23 06:34:56;;;;;;;191.70;31.97;;;;;;;6.81;100.00;149168.00;5010272;28;20032;-64
2022/12/23 06:37:21;;;;;;;260.77;33.13;;;;;;;6.74;100.00;149151.19;5012369;28;20117;-62
2022/12/23 06:39:47;;;;;;;248.87;32.23;;;;;;;6.69;100.00;149138.31;5011981;28;20026;-62
2022/12/23 06:42:12;;;;;;;225.80;33.07;;;;;;;6.74;100.00;149151.19;5012336;28;20025;-62
2022/12/23 06:44:38;;;;;;;290.00;34.83;;;;;;;6.80;100.00;149166.72;5011674;28;20017;-63
2022/12/23 06:47:03;;;;;;;292.03;34.97;;;;;;;6.80;100.00;149165.41;5012380;28;20029;-63
2022/12/23 06:49:29;;;;;;;270.00;36.13;;;;;;;6.83;100.00;149174.44;5009929;28;20478;-63
2022/12/23 06:51:57;;;;;;;255.37;35.57;;;;;;;6.84;100.00;149177.03;5011943;28;20417;-62
2022/12/23 06:54:22;;;;;;;268.57;34.97;;;;;;;6.83;100.00;149174.44;5011341;28;20018;-61
2022/12/23 06:56:48;;;;;;;283.50;34.80;;;;;;;6.83;100.00;149174.44;5011797;28;20033;-63
2022/12/23 06:59:13;;;;;;;302.30;36.37;;;;;;;6.87;100.00;149183.47;5011654;28;20034;-63
2022/12/23 07:01:39;;;;;;;280.00;34.53;;;;;;;6.87;100.00;149184.75;5011826;28;20018;-62
2022/12/23 07:04:05;;;;;;;396.43;38.30;;;;;;;6.94;100.00;149202.84;5010050;28;20017;-62
2022/12/23 07:06:31;;;;;;;475.97;39.77;;;;;;;6.88;100.00;149186.03;5012144;28;20067;-62
2022/12/23 07:08:56;;;;;;;460.47;39.57;;;;;;;6.87;100.00;149184.75;5011434;28;20022;-62
2022/12/23 07:11:22;;;;;;;330.67;36.30;;;;;;;6.85;100.00;149179.59;5011946;28;20469;-63
2022/12/23 07:13:47;;;;;;;327.30;36.63;;;;;;;6.89;100.00;149188.63;5011608;28;20148;-64
2022/12/23 07:16:13;;;;;;;317.20;35.97;;;;;;;6.89;100.00;149189.91;5010957;28;20029;-63
2022/12/23 07:18:39;;;;;;;260.03;39.80;;;;;;;6.92;100.00;149197.69;5012385;28;20477;-61
2022/12/23 07:21:04;;;;;;;293.47;39.20;;;;;;;6.95;100.00;149205.44;4997845;28;20456;-63
2022/12/23 07:23:30;;;;;;;286.47;36.80;;;;;;;6.90;100.00;149192.50;5015220;28;20041;-63
2022/12/23 07:25:56;;;;;;;307.13;38.17;;;;;;;6.89;100.00;149189.91;5013950;28;20100;-62
2022/12/23 07:28:22;;;;;;;303.03;35.27;;;;;;;6.86;100.00;149182.19;5015656;28;20034;-62
2022/12/23 07:30:48;;;;;;;277.87;35.00;;;;;;;6.85;100.00;149179.59;5014237;28;20322;-63
2022/12/23 07:33:13;;;;;;;339.80;37.70;;;;;;;6.92;100.00;149197.69;5013763;28;20032;-62
2022/12/23 07:35:42;;;;;;;520.27;40.53;;;;;;;6.91;100.00;149195.13;5014690;28;20038;-63
2022/12/23 07:38:10;;;;;;;295.77;35.80;;;;;;;6.92;100.00;149197.69;5015260;28;20068;-63
2022/12/23 07:40:35;;;;;;;323.30;36.60;;;;;;;6.94;100.00;149201.56;5015060;28;20080;-62
2022/12/23 07:43:02;;;;;;;302.10;35.47;;;;;;;6.93;100.00;149200.28;5014810;28;20018;-63
2022/12/23 07:45:28;;;;;;;348.77;36.27;;;;;;;6.96;100.00;149208.00;5012346;28;20028;-63
2022/12/23 07:47:55;;;;;;;309.00;35.07;;;;;;;6.94;100.00;149201.56;5015214;28;20549;-62
2022/12/23 07:50:22;;;;;;;310.30;37.13;;;;;;;6.96;100.00;149208.00;5014705;28;20026;-62
2022/12/23 07:52:47;;;;;;;293.53;36.43;;;;;;;7.01;100.00;149220.91;5015302;28;20370;-62
2022/12/23 07:55:13;;;;;;;307.13;35.50;;;;;;;7.03;100.00;149226.09;5006674;28;20033;-63
2022/12/23 07:57:40;;;;;;;267.50;34.60;;;;;;;7.08;100.00;149236.41;5014750;28;20030;-61
2022/12/23 08:00:08;;;;;;;259.93;33.43;;;;;;;7.10;100.00;149241.56;5013659;28;20025;-63
2022/12/23 08:02:33;;;;;;;257.23;32.73;;;;;;;7.06;100.00;149232.56;5014676;28;20072;-63
2022/12/23 08:04:58;;;;;;;284.17;33.83;;;;;;;7.12;100.00;149248.03;5013939;28;20049;-61
2022/12/23 08:07:24;;;;;;;314.03;34.00;;;;;;;7.05;100.00;149231.25;5014423;28;20408;-62
2022/12/23 08:09:50;;;;;;;384.30;35.37;;;;;;;7.02;100.00;149223.47;5014902;28;20026;-62
2022/12/23 08:12:21;;;;;;;446.57;37.83;;;;;;;7.02;100.00;149223.47;5015223;28;20048;-62
2022/12/23 08:14:47;;;;;;;371.13;36.72;;;;;;;7.06;100.00;149232.56;5012796;28;20359;-63
2022/12/23 08:17:13;;;;;;;534.97;40.97;;;;;;;7.10;100.00;149241.56;5014965;28;20036;-63
2022/12/23 08:19:38;;;;;;;526.23;40.30;;;;;;;7.03;100.00;149226.09;5013821;28;20040;-63
2022/12/23 08:22:07;;;;;;;492.50;42.00;;;;;;;7.09;100.00;149240.28;5014607;28;20022;-63
2022/12/23 08:24:32;;;;;;;333.10;38.03;;;;;;;7.14;100.00;149251.88;5014609;28;20493;-63
2022/12/23 08:26:58;;;;;;;472.30;41.23;;;;;;;7.12;100.00;149246.72;5015051;28;20030;-62
2022/12/23 08:29:23;;;;;;;533.00;42.60;;;;;;;7.16;100.00;149258.38;5013226;28;20479;-62
2022/12/23 08:31:49;;;;;;;448.90;40.60;;;;;;;7.18;100.00;149262.25;5014789;28;20049;-62
2022/12/23 08:34:15;;;;;;;591.67;42.70;;;;;;;7.17;100.00;149259.69;5014035;28;20490;-62
2022/12/23 08:36:40;;;;;;;460.00;41.27;;;;;;;7.19;100.00;149264.84;5014391;28;20117;-62
2022/12/23 08:39:08;;;;;;;394.13;37.47;;;;;;;7.16;100.00;149258.38;5014311;28;20030;-63
2022/12/23 08:41:43;;;;;;;356.27;35.63;;;;;;;7.23;100.00;149275.16;5014744;28;20033;-63
2022/12/23 08:44:09;;;;;;;520.67;41.93;;;;;;;7.28;100.00;149289.38;5012458;28;20140;-63
2022/12/23 08:46:38;;;;;;;536.17;40.13;;;;;;;7.28;100.00;149288.09;5013879;28;20068;-63
2022/12/23 08:49:04;;;;;;;403.77;37.37;;;;;;;7.25;100.00;149281.59;5014043;28;20386;-63
2022/12/23 08:51:30;;;;;;;442.30;38.37;;;;;;;7.22;100.00;149272.56;5014173;28;20076;-62
2022/12/23 08:53:58;;;;;;;486.80;39.57;;;;;;;7.22;100.00;149272.56;5014120;28;20052;-63
2022/12/23 08:56:25;;;;;;;594.20;42.03;;;;;;;7.32;100.00;149298.41;5014069;28;20466;-61
2022/12/23 08:58:53;;;;;;;392.67;38.00;;;;;;;7.30;100.00;149293.25;5012023;28;20132;-60
2022/12/23 09:01:23;;;;;;;540.53;39.87;;;;;;;7.38;100.00;149313.88;5012157;28;20469;-61
2022/12/23 09:03:50;;;;;;;373.30;35.23;;;;;;;7.46;100.00;149334.56;5011718;28;20022;-61
2022/12/23 09:06:17;;;;;;;433.90;36.50;;;;;;;7.50;100.00;149344.88;5002733;28;20348;-61
2022/12/23 09:08:43;;;;;;;403.47;34.13;;;;;;;7.47;100.00;149337.16;5006461;28;20034;-62
2022/12/23 09:11:18;;;;;;;386.63;37.13;;;;;;;7.46;100.00;149333.28;4985843;28;20390;-62
2022/12/23 09:13:44;;;;;;;437.63;36.13;;;;;;;7.66;100.00;149384.97;5010943;28;20046;-62
2022/12/23 09:16:11;;;;;;;447.80;36.57;;;;;;;7.61;100.00;149373.31;5008484;28;20104;-61
2022/12/23 09:18:36;;;;;;;330.30;34.53;;;;;;;7.61;100.00;149373.31;5011095;28;20513;-62
2022/12/23 09:21:06;;;;;;;330.40;32.93;;;;;;;7.56;100.00;149359.13;5010588;28;20157;-62
2022/12/23 09:23:33;;;;;;;366.10;32.57;;;;;;;7.46;100.00;149334.56;5011871;28;20481;-62
2022/12/23 09:25:59;;;;;;;386.03;33.23;;;;;;;7.46;100.00;149334.56;5013013;28;20037;-61
2022/12/23 09:28:25;;;;;;;416.00;35.17;;;;;;;7.56;100.00;149359.13;5011765;28;20033;-61
2022/12/23 09:30:50;;;;;;;419.87;35.40;;;;;;;7.54;100.00;149355.25;5013084;28;20021;-63
2022/12/23 09:33:16;;;;;;;356.93;34.13;;;;;;;7.48;100.00;149339.72;5013539;28;20041;-61
2022/12/23 09:35:45;;;;;;;313.50;31.57;;;;;;;7.54;100.00;149355.25;5012898;28;20045;-62
2022/12/23 09:38:11;;;;;;;273.10;30.67;;;;;;;7.43;100.00;149326.84;4997829;28;20046;-61
2022/12/23 09:40:38;;;;;;;336.43;32.87;;;;;;;7.50;100.00;149343.59;5011918;28;20712;-62
2022/12/23 09:43:29;;;;;;;292.67;32.03;;;;;;;7.41;100.00;149321.66;5011480;28;20040;-62
2022/12/23 09:45:57;;;;;;;302.50;30.47;;;;;;;7.47;100.00;149337.16;5009523;28;20045;-62
2022/12/23 09:48:31;;;;;;;330.83;32.43;;;;;;;7.67;100.00;149386.25;5010740;28;20033;-61
2022/12/23 09:50:58;;;;;;;438.50;35.83;;;;;;;7.97;100.00;149462.47;4993214;28;20042;-61
2022/12/23 09:53:42;;;;;;;279.63;31.13;;;;;;;8.15;100.00;149510.31;5012190;28;20058;-61
2022/12/23 09:56:18;;;;;;;238.47;30.60;;;;;;;8.10;100.00;149497.34;5012873;28;20029;-62
2022/12/23 09:59:01;;;;;;;177.50;27.17;;;;;;;7.96;100.00;149461.19;5011550;28;20426;-61
2022/12/23 10:01:43;;;;;;;178.87;28.50;;;;;;;8.01;100.00;149472.84;5006916;28;20041;-61
2022/12/23 10:04:21;;;;;;;176.47;26.87;;;;;;;8.19;100.00;149519.34;5012335;28;20087;-61
2022/12/23 10:07:08;;;;;;;148.63;27.03;;;;;;;8.17;100.00;149514.19;5011302;28;21674;-61
2022/12/23 10:09:38;;;;;;;149.63;28.33;;;;;;;8.23;100.00;149530.97;4948555;28;20489;-61
2022/12/23 10:12:22;;;;;;;146.63;28.53;;;;;;;8.56;100.00;149613.75;5009261;28;20413;-61
2022/12/23 10:14:51;;;;;;;104.77;25.67;;;;;;;8.62;100.00;149629.31;5012220;28;20025;-62
2022/12/23 10:17:28;;;;;;;121.97;26.60;;;;;;;8.47;100.00;149590.47;5012533;28;20068;-62
2022/12/23 10:20:00;;;;;;;114.70;26.27;;;;;;;8.45;100.00;149585.31;5011323;28;20029;-62
2022/12/23 10:22:37;;;;;;;99.47;25.90;;;;;;;8.76;100.00;149665.50;5012523;28;20516;-63
2022/12/23 10:25:12;;;;;;;91.40;24.43;;;;;;;8.83;100.00;149682.28;5010801;28;20072;-63
2022/12/23 10:27:40;;;;;;;91.13;24.00;;;;;;;8.77;100.00;149668.09;5012657;28;20034;-62
2022/12/23 10:30:55;;;;;;;79.57;23.23;;;;;;;9.01;100.00;149727.59;5011786;28;20596;-63
2022/12/23 10:33:36;;;;;;;71.10;22.47;;;;;;;9.29;100.00;149798.72;4993074;28;20150;-62
2022/12/23 10:36:27;;;;;;;77.33;23.23;;;;;;;9.30;100.00;149802.59;5009699;28;20084;-63
2022/12/23 10:39:04;;;;;;;74.82;24.45;;;;;;;9.26;100.00;149792.25;5009991;28;20042;-63
2022/12/23 10:41:45;;;;;;;70.70;22.97;;;;;;;9.23;100.00;149784.50;5000939;28;20033;-63
2022/12/23 10:44:35;;;;;;;65.20;21.80;;;;;;;9.21;100.00;149779.34;5012022;28;20108;-60
2022/12/23 10:47:26;;;;;;;68.93;22.70;;;;;;;9.16;100.00;149766.38;5012505;28;20736;-62
2022/12/23 10:49:57;;;;;;;58.93;20.80;;;;;;;9.09;100.00;149749.59;5011938;28;20501;-61
2022/12/23 10:52:34;;;;;;;53.72;19.55;;;;;;;9.10;100.00;149752.16;5011744;28;20028;-61
2022/12/23 10:54:59;;;;;;;51.93;20.40;;;;;;;9.09;100.00;149749.59;5010890;28;20034;-61
2022/12/23 10:57:25;;;;;;;63.87;21.17;;;;;;;9.11;100.00;149753.47;5012229;28;20117;-61
2022/12/23 10:59:50;;;;;;;59.97;21.07;;;;;;;9.10;100.00;149750.88;5012041;28;20433;-60
2022/12/23 11:02:22;;;;;;;55.90;21.03;;;;;;;9.11;100.00;149753.47;5012347;28;20351;-61
2022/12/23 11:04:49;;;;;;;51.25;19.30;;;;;;;9.09;100.00;149748.31;5011837;28;20486;-61
2022/12/23 11:07:25;;;;;;;58.90;21.43;;;;;;;8.94;100.00;149709.47;5012139;28;20034;-61
2022/12/23 11:10:02;;;;;;;87.77;26.00;;;;;;;8.75;100.00;149662.94;5010955;28;20044;-62
2022/12/23 11:12:43;;;;;;;97.03;28.70;;;;;;;8.50;100.00;149598.28;5011824;28;20109;-62
2022/12/23 11:15:24;;;;;;;131.82;33.05;;;;;;;8.18;100.00;149518.06;5011579;28;20030;-62
2022/12/23 11:18:01;;;;;;;135.70;32.70;;;;;;;8.25;100.00;149533.59;5012012;28;20053;-62
2022/12/23 11:20:28;;;;;;;163.77;35.27;;;;;;;8.47;100.00;149591.78;5011622;28;20038;-62
2022/12/23 11:23:00;;;;;;;149.93;33.53;;;;;;;8.48;100.00;149593.09;5011720;28;20100;-62
2022/12/23 11:25:39;;;;;;;141.80;31.80;;;;;;;8.50;100.00;149598.28;5009831;28;20069;-62
2022/12/23 11:28:27;;;;;;;131.70;30.37;;;;;;;8.22;100.00;149528.38;5012092;28;20503;-62
2022/12/23 11:31:07;;;;;;;109.53;28.63;;;;;;;8.15;100.00;149509.03;5010731;28;20025;-62
2022/12/23 11:34:00;;;;;;;109.40;26.67;;;;;;;8.25;100.00;149533.59;5011835;28;20029;-62
2022/12/23 11:36:28;;;;;;;114.80;27.67;;;;;;;8.35;100.00;149559.44;4998702;28;20022;-62
2022/12/23 11:39:16;;;;;;;113.63;27.87;;;;;;;8.52;100.00;149603.44;5004636;28;20033;-62
2022/12/23 11:41:47;;;;;;;75.57;22.13;;;;;;;8.60;100.00;149624.13;4995013;28;20132;-62
2022/12/23 11:44:31;;;;;;;63.13;21.45;;;;;;;8.59;100.00;149621.50;4996105;28;20041;-63